sensor_id;sensor_type;location;lat;lon;timestamp;temperature;humidity
49465;DHT22;35358;49.342;8.802;2023-04-05T00:01:58;1.80;99.90
49465;DHT22;35358;49.342;8.802;2023-04-05T00:04:27;1.80;99.90
49465;DHT22;35358;49.342;8.802;2023-04-05T00:07:03;1.80;99.90
49465;DHT22;35358;49.342;8.802;2023-04-05T00:09:32;1.80;99.90
49465;DHT22;35358;49.342;8.802;2023-04-05T00:11:58;1.80;99.90
49465;DHT22;35358;49.342;8.802;2023-04-05T00:14:25;1.70;99.90
49465;DHT22;35358;49.342;8.802;2023-04-05T00:16:53;1.70;99.90
49465;DHT22;35358;49.342;8.802;2023-04-05T00:19:19;1.80;99.90
49465;DHT22;35358;49.342;8.802;2023-04-05T00:21:47;1.80;99.90
49465;DHT22;35358;49.342;8.802;2023-04-05T00:24:21;1.90;99.90
49465;DHT22;35358;49.342;8.802;2023-04-05T00:26:47;1.70;99.90
49465;DHT22;35358;49.342;8.802;2023-04-05T00:29:12;1.60;99.90
49465;DHT22;35358;49.342;8.802;2023-04-05T00:31:38;1.30;99.90
49465;DHT22;35358;49.342;8.802;2023-04-05T00:34:04;1.00;99.90
49465;DHT22;35358;49.342;8.802;2023-04-05T00:36:33;0.90;99.90
49465;DHT22;35358;49.342;8.802;2023-04-05T00:38:59;1.10;99.90
49465;DHT22;35358;49.342;8.802;2023-04-05T00:41:24;1.10;99.90
49465;DHT22;35358;49.342;8.802;2023-04-05T00:43:52;1.10;99.90
49465;DHT22;35358;49.342;8.802;2023-04-05T00:46:18;1.20;99.90
49465;DHT22;35358;49.342;8.802;2023-04-05T00:48:43;1.20;99.90
49465;DHT22;35358;49.342;8.802;2023-04-05T00:51:10;1.20;99.90
49465;DHT22;35358;49.342;8.802;2023-04-05T00:53:38;1.20;99.90
49465;DHT22;35358;49.342;8.802;2023-04-05T00:56:05;1.10;99.90
49465;DHT22;35358;49.342;8.802;2023-04-05T00:58:33;0.90;99.90
49465;DHT22;35358;49.342;8.802;2023-04-05T01:01:37;1.00;99.90
49465;DHT22;35358;49.342;8.802;2023-04-05T01:04:00;1.20;99.90
49465;DHT22;35358;49.342;8.802;2023-04-05T01:06:56;1.10;99.90
49465;DHT22;35358;49.342;8.802;2023-04-05T01:49:56;0.20;99.90
49465;DHT22;35358;49.342;8.802;2023-04-05T01:52:24;0.30;99.90
49465;DHT22;35358;49.342;8.802;2023-04-05T01:54:52;0.40;99.90
49465;DHT22;35358;49.342;8.802;2023-04-05T01:57:20;0.50;99.90
49465;DHT22;35358;49.342;8.802;2023-04-05T01:59:48;0.40;99.90
49465;DHT22;35358;49.342;8.802;2023-04-05T02:02:13;0.40;99.90
49465;DHT22;35358;49.342;8.802;2023-04-05T02:04:39;0.40;99.90
49465;DHT22;35358;49.342;8.802;2023-04-05T02:07:07;0.50;99.90
49465;DHT22;35358;49.342;8.802;2023-04-05T02:09:33;0.50;99.90
49465;DHT22;35358;49.342;8.802;2023-04-05T02:12:01;0.60;99.90
49465;DHT22;35358;49.342;8.802;2023-04-05T02:14:30;0.60;99.90
49465;DHT22;35358;49.342;8.802;2023-04-05T02:16:55;0.60;99.90
49465;DHT22;35358;49.342;8.802;2023-04-05T02:19:21;0.60;99.90
49465;DHT22;35358;49.342;8.802;2023-04-05T02:21:51;0.60;99.90
49465;DHT22;35358;49.342;8.802;2023-04-05T02:24:19;0.50;99.90
49465;DHT22;35358;49.342;8.802;2023-04-05T02:26:47;0.50;99.90
49465;DHT22;35358;49.342;8.802;2023-04-05T02:29:13;0.40;99.90
49465;DHT22;35358;49.342;8.802;2023-04-05T02:31:38;0.30;99.90
49465;DHT22;35358;49.342;8.802;2023-04-05T02:34:04;0.10;99.90
49465;DHT22;35358;49.342;8.802;2023-04-05T02:36:33;0.10;99.90
49465;DHT22;35358;49.342;8.802;2023-04-05T02:39:01;0.00;99.90
49465;DHT22;35358;49.342;8.802;2023-04-05T02:41:27;0.00;99.90
49465;DHT22;35358;49.342;8.802;2023-04-05T02:43:52;0.00;99.90
49465;DHT22;35358;49.342;8.802;2023-04-05T02:46:18;0.10;99.90
49465;DHT22;35358;49.342;8.802;2023-04-05T02:48:46;0.10;99.90
49465;DHT22;35358;49.342;8.802;2023-04-05T02:51:17;0.20;99.90
49465;DHT22;35358;49.342;8.802;2023-04-05T02:53:42;0.20;99.90
49465;DHT22;35358;49.342;8.802;2023-04-05T02:56:09;0.20;99.90
49465;DHT22;35358;49.342;8.802;2023-04-05T02:58:39;0.20;99.90
49465;DHT22;35358;49.342;8.802;2023-04-05T03:01:05;0.30;99.90
49465;DHT22;35358;49.342;8.802;2023-04-05T03:03:31;0.30;99.90
49465;DHT22;35358;49.342;8.802;2023-04-05T03:06:03;0.10;99.90
49465;DHT22;35358;49.342;8.802;2023-04-05T03:08:36;0.10;99.90
49465;DHT22;35358;49.342;8.802;2023-04-05T03:11:06;0.10;99.90
49465;DHT22;35358;49.342;8.802;2023-04-05T03:13:34;0.20;99.90
49465;DHT22;35358;49.342;8.802;2023-04-05T03:16:02;0.00;99.90
49465;DHT22;35358;49.342;8.802;2023-04-05T03:18:28;0.00;99.90
49465;DHT22;35358;49.342;8.802;2023-04-05T03:20:55;0.10;99.90
49465;DHT22;35358;49.342;8.802;2023-04-05T03:23:22;0.00;99.90
49465;DHT22;35358;49.342;8.802;2023-04-05T03:26:01;0.00;99.90
49465;DHT22;35358;49.342;8.802;2023-04-05T03:28:30;-0.10;99.90
49465;DHT22;35358;49.342;8.802;2023-04-05T03:30:58;0.00;99.90
49465;DHT22;35358;49.342;8.802;2023-04-05T03:33:24;0.00;99.90
49465;DHT22;35358;49.342;8.802;2023-04-05T03:35:52;0.10;99.90
49465;DHT22;35358;49.342;8.802;2023-04-05T03:38:17;0.20;99.90
49465;DHT22;35358;49.342;8.802;2023-04-05T03:40:43;0.20;99.90
49465;DHT22;35358;49.342;8.802;2023-04-05T03:43:08;0.20;99.90
49465;DHT22;35358;49.342;8.802;2023-04-05T03:45:34;0.20;99.90
49465;DHT22;35358;49.342;8.802;2023-04-05T03:48:00;0.20;99.90
49465;DHT22;35358;49.342;8.802;2023-04-05T03:50:27;0.00;99.90
49465;DHT22;35358;49.342;8.802;2023-04-05T03:52:53;0.00;99.90
49465;DHT22;35358;49.342;8.802;2023-04-05T03:55:18;0.10;99.90
49465;DHT22;35358;49.342;8.802;2023-04-05T03:57:44;0.10;99.90
49465;DHT22;35358;49.342;8.802;2023-04-05T04:00:12;0.00;99.90
49465;DHT22;35358;49.342;8.802;2023-04-05T04:02:46;-0.10;99.90
49465;DHT22;35358;49.342;8.802;2023-04-05T04:05:14;-0.10;99.90
49465;DHT22;35358;49.342;8.802;2023-04-05T04:07:43;-0.20;99.90
49465;DHT22;35358;49.342;8.802;2023-04-05T04:10:14;-0.20;99.90
49465;DHT22;35358;49.342;8.802;2023-04-05T04:12:44;-0.20;99.90
49465;DHT22;35358;49.342;8.802;2023-04-05T04:15:10;-0.10;99.90
49465;DHT22;35358;49.342;8.802;2023-04-05T04:17:38;0.00;99.90
49465;DHT22;35358;49.342;8.802;2023-04-05T04:20:04;-0.20;99.90
49465;DHT22;35358;49.342;8.802;2023-04-05T04:22:37;-0.30;99.90
49465;DHT22;35358;49.342;8.802;2023-04-05T04:25:10;-0.30;99.90
49465;DHT22;35358;49.342;8.802;2023-04-05T04:27:38;-0.40;99.90
49465;DHT22;35358;49.342;8.802;2023-04-05T04:30:10;-0.50;99.90
49465;DHT22;35358;49.342;8.802;2023-04-05T04:32:37;-0.50;99.90
49465;DHT22;35358;49.342;8.802;2023-04-05T04:35:17;-0.70;99.90
49465;DHT22;35358;49.342;8.802;2023-04-05T04:37:52;-0.80;99.90
49465;DHT22;35358;49.342;8.802;2023-04-05T04:40:21;-0.60;99.90
49465;DHT22;35358;49.342;8.802;2023-04-05T04:42:47;-0.50;99.90
49465;DHT22;35358;49.342;8.802;2023-04-05T04:45:14;-0.40;99.90
49465;DHT22;35358;49.342;8.802;2023-04-05T04:47:45;-0.50;99.90
49465;DHT22;35358;49.342;8.802;2023-04-05T04:50:12;-0.40;99.90
49465;DHT22;35358;49.342;8.802;2023-04-05T04:52:39;-0.40;99.90
49465;DHT22;35358;49.342;8.802;2023-04-05T04:55:08;-0.40;99.90
49465;DHT22;35358;49.342;8.802;2023-04-05T04:57:35;-0.40;99.90
49465;DHT22;35358;49.342;8.802;2023-04-05T05:00:03;-0.40;99.90
49465;DHT22;35358;49.342;8.802;2023-04-05T05:02:39;-0.60;99.90
49465;DHT22;35358;49.342;8.802;2023-04-05T05:05:07;-0.50;99.90
49465;DHT22;35358;49.342;8.802;2023-04-05T05:07:34;-0.40;99.90
49465;DHT22;35358;49.342;8.802;2023-04-05T05:10:02;-0.30;99.90
49465;DHT22;35358;49.342;8.802;2023-04-05T05:12:28;-0.30;99.90
49465;DHT22;35358;49.342;8.802;2023-04-05T05:14:55;-0.30;99.90
49465;DHT22;35358;49.342;8.802;2023-04-05T05:17:24;-0.30;99.90
49465;DHT22;35358;49.342;8.802;2023-04-05T05:19:49;-0.30;99.90
49465;DHT22;35358;49.342;8.802;2023-04-05T05:22:16;-0.30;99.90
49465;DHT22;35358;49.342;8.802;2023-04-05T05:24:45;-0.20;99.90
49465;DHT22;35358;49.342;8.802;2023-04-05T05:27:11;-0.20;99.90
49465;DHT22;35358;49.342;8.802;2023-04-05T05:29:38;-0.20;99.90
49465;DHT22;35358;49.342;8.802;2023-04-05T05:32:04;-0.20;99.90
49465;DHT22;35358;49.342;8.802;2023-04-05T05:34:30;-0.20;99.90
49465;DHT22;35358;49.342;8.802;2023-04-05T05:36:58;-0.20;99.90
49465;DHT22;35358;49.342;8.802;2023-04-05T05:39:23;-0.20;99.90
49465;DHT22;35358;49.342;8.802;2023-04-05T05:41:52;-0.10;99.90
49465;DHT22;35358;49.342;8.802;2023-04-05T05:44:19;0.00;99.90
49465;DHT22;35358;49.342;8.802;2023-04-05T05:46:45;-0.10;99.90
49465;DHT22;35358;49.342;8.802;2023-04-05T05:49:11;-0.20;99.90
49465;DHT22;35358;49.342;8.802;2023-04-05T05:51:39;-0.10;99.90
49465;DHT22;35358;49.342;8.802;2023-04-05T05:54:05;0.10;99.90
49465;DHT22;35358;49.342;8.802;2023-04-05T05:56:30;0.20;99.90
49465;DHT22;35358;49.342;8.802;2023-04-05T05:58:56;0.20;99.90
49465;DHT22;35358;49.342;8.802;2023-04-05T06:01:24;0.20;99.90
49465;DHT22;35358;49.342;8.802;2023-04-05T06:03:57;0.20;99.90
49465;DHT22;35358;49.342;8.802;2023-04-05T06:06:23;0.30;99.90
49465;DHT22;35358;49.342;8.802;2023-04-05T06:08:48;0.30;99.90
49465;DHT22;35358;49.342;8.802;2023-04-05T06:11:21;0.30;99.90
49465;DHT22;35358;49.342;8.802;2023-04-05T06:13:52;0.40;99.90
49465;DHT22;35358;49.342;8.802;2023-04-05T06:16:21;0.40;99.90
49465;DHT22;35358;49.342;8.802;2023-04-05T06:18:49;0.40;99.90
49465;DHT22;35358;49.342;8.802;2023-04-05T06:21:15;0.60;99.90
49465;DHT22;35358;49.342;8.802;2023-04-05T06:23:43;0.70;99.90
49465;DHT22;35358;49.342;8.802;2023-04-05T06:26:14;0.70;99.90
49465;DHT22;35358;49.342;8.802;2023-04-05T06:28:43;0.90;99.90
49465;DHT22;35358;49.342;8.802;2023-04-05T06:31:14;1.00;99.90
49465;DHT22;35358;49.342;8.802;2023-04-05T06:33:41;0.90;99.90
49465;DHT22;35358;49.342;8.802;2023-04-05T06:36:07;1.00;99.90
49465;DHT22;35358;49.342;8.802;2023-04-05T06:38:32;1.10;99.90
49465;DHT22;35358;49.342;8.802;2023-04-05T06:41:01;1.20;99.90
49465;DHT22;35358;49.342;8.802;2023-04-05T06:43:26;1.20;99.90
49465;DHT22;35358;49.342;8.802;2023-04-05T06:45:55;1.20;99.90
49465;DHT22;35358;49.342;8.802;2023-04-05T06:48:20;1.30;99.90
49465;DHT22;35358;49.342;8.802;2023-04-05T06:50:46;1.40;99.90
49465;DHT22;35358;49.342;8.802;2023-04-05T06:53:13;1.50;99.90
49465;DHT22;35358;49.342;8.802;2023-04-05T06:55:48;1.40;99.90
49465;DHT22;35358;49.342;8.802;2023-04-05T06:58:15;1.60;99.90
49465;DHT22;35358;49.342;8.802;2023-04-05T07:00:40;1.70;99.90
49465;DHT22;35358;49.342;8.802;2023-04-05T07:03:06;1.80;99.90
49465;DHT22;35358;49.342;8.802;2023-04-05T07:05:34;1.90;99.90
49465;DHT22;35358;49.342;8.802;2023-04-05T07:08:02;2.00;99.90
49465;DHT22;35358;49.342;8.802;2023-04-05T07:10:27;2.00;99.90
49465;DHT22;35358;49.342;8.802;2023-04-05T07:12:53;2.20;99.90
49465;DHT22;35358;49.342;8.802;2023-04-05T07:15:19;2.40;99.90
49465;DHT22;35358;49.342;8.802;2023-04-05T07:17:48;2.60;99.90
49465;DHT22;35358;49.342;8.802;2023-04-05T07:20:13;2.70;99.90
49465;DHT22;35358;49.342;8.802;2023-04-05T07:22:43;2.60;99.90
49465;DHT22;35358;49.342;8.802;2023-04-05T07:25:09;2.40;99.90
49465;DHT22;35358;49.342;8.802;2023-04-05T07:27:34;2.50;99.90
49465;DHT22;35358;49.342;8.802;2023-04-05T07:30:00;2.60;99.90
49465;DHT22;35358;49.342;8.802;2023-04-05T07:32:26;2.70;99.90
49465;DHT22;35358;49.342;8.802;2023-04-05T07:34:53;2.90;99.90
49465;DHT22;35358;49.342;8.802;2023-04-05T07:37:22;3.10;99.90
49465;DHT22;35358;49.342;8.802;2023-04-05T07:39:47;3.20;99.90
49465;DHT22;35358;49.342;8.802;2023-04-05T07:42:13;3.30;99.90
49465;DHT22;35358;49.342;8.802;2023-04-05T07:44:41;3.30;99.90
49465;DHT22;35358;49.342;8.802;2023-04-05T07:47:09;3.40;99.90
49465;DHT22;35358;49.342;8.802;2023-04-05T07:49:37;3.50;99.90
49465;DHT22;35358;49.342;8.802;2023-04-05T07:52:04;3.50;99.90
49465;DHT22;35358;49.342;8.802;2023-04-05T07:54:33;3.60;99.90
49465;DHT22;35358;49.342;8.802;2023-04-05T07:57:03;3.70;99.90
49465;DHT22;35358;49.342;8.802;2023-04-05T07:59:29;3.90;99.90
49465;DHT22;35358;49.342;8.802;2023-04-05T08:01:58;3.90;99.90
49465;DHT22;35358;49.342;8.802;2023-04-05T08:04:26;3.80;99.90
49465;DHT22;35358;49.342;8.802;2023-04-05T08:06:54;4.00;99.90
49465;DHT22;35358;49.342;8.802;2023-04-05T08:09:20;4.10;99.90
49465;DHT22;35358;49.342;8.802;2023-04-05T08:11:48;4.20;99.90
49465;DHT22;35358;49.342;8.802;2023-04-05T08:14:13;4.20;99.90
49465;DHT22;35358;49.342;8.802;2023-04-05T08:16:39;4.50;99.90
49465;DHT22;35358;49.342;8.802;2023-04-05T08:19:04;4.50;99.90
49465;DHT22;35358;49.342;8.802;2023-04-05T08:21:30;4.60;99.90
49465;DHT22;35358;49.342;8.802;2023-04-05T08:23:58;5.00;99.90
49465;DHT22;35358;49.342;8.802;2023-04-05T08:26:26;4.90;99.90
49465;DHT22;35358;49.342;8.802;2023-04-05T08:28:52;4.80;99.90
49465;DHT22;35358;49.342;8.802;2023-04-05T08:31:17;4.90;99.90
49465;DHT22;35358;49.342;8.802;2023-04-05T08:33:43;5.10;99.90
49465;DHT22;35358;49.342;8.802;2023-04-05T08:36:09;5.10;99.90
49465;DHT22;35358;49.342;8.802;2023-04-05T08:38:35;5.20;99.90
49465;DHT22;35358;49.342;8.802;2023-04-05T08:44:16;5.60;99.90
49465;DHT22;35358;49.342;8.802;2023-04-05T08:46:48;5.50;99.90
49465;DHT22;35358;49.342;8.802;2023-04-05T08:49:15;5.50;99.90
49465;DHT22;35358;49.342;8.802;2023-04-05T08:51:45;5.40;99.90
49465;DHT22;35358;49.342;8.802;2023-04-05T08:54:12;5.30;99.90
49465;DHT22;35358;49.342;8.802;2023-04-05T08:56:40;5.40;99.90
49465;DHT22;35358;49.342;8.802;2023-04-05T08:59:10;5.80;99.90
49465;DHT22;35358;49.342;8.802;2023-04-05T09:01:43;5.60;99.90
49465;DHT22;35358;49.342;8.802;2023-04-05T09:04:15;6.00;99.90
49465;DHT22;35358;49.342;8.802;2023-04-05T09:06:44;6.10;99.90
49465;DHT22;35358;49.342;8.802;2023-04-05T09:09:13;6.00;99.90
49465;DHT22;35358;49.342;8.802;2023-04-05T09:11:38;6.00;99.90
49465;DHT22;35358;49.342;8.802;2023-04-05T09:14:07;6.20;99.90
49465;DHT22;35358;49.342;8.802;2023-04-05T09:16:39;6.10;99.90
49465;DHT22;35358;49.342;8.802;2023-04-05T09:19:05;6.30;99.90
49465;DHT22;35358;49.342;8.802;2023-04-05T09:22:03;6.70;99.90
49465;DHT22;35358;49.342;8.802;2023-04-05T09:24:37;6.60;99.90
49465;DHT22;35358;49.342;8.802;2023-04-05T09:29:37;7.10;99.90
49465;DHT22;35358;49.342;8.802;2023-04-05T09:32:04;7.00;99.90
49465;DHT22;35358;49.342;8.802;2023-04-05T09:34:34;8.00;99.90
49465;DHT22;35358;49.342;8.802;2023-04-05T09:37:16;9.10;99.90
49465;DHT22;35358;49.342;8.802;2023-04-05T09:39:42;9.40;99.90
49465;DHT22;35358;49.342;8.802;2023-04-05T09:47:20;7.40;99.90
49465;DHT22;35358;49.342;8.802;2023-04-05T09:49:45;7.20;99.90
49465;DHT22;35358;49.342;8.802;2023-04-05T09:52:25;7.00;99.90
49465;DHT22;35358;49.342;8.802;2023-04-05T09:54:56;7.00;99.90
49465;DHT22;35358;49.342;8.802;2023-04-05T09:57:25;7.20;99.90
49465;DHT22;35358;49.342;8.802;2023-04-05T09:59:54;7.40;99.90
49465;DHT22;35358;49.342;8.802;2023-04-05T10:02:24;7.60;99.90
49465;DHT22;35358;49.342;8.802;2023-04-05T10:04:50;7.50;99.90
49465;DHT22;35358;49.342;8.802;2023-04-05T10:07:17;8.00;99.90
49465;DHT22;35358;49.342;8.802;2023-04-05T10:09:47;8.00;99.90
49465;DHT22;35358;49.342;8.802;2023-04-05T10:12:33;7.80;99.90
49465;DHT22;35358;49.342;8.802;2023-04-05T10:15:02;8.10;99.90
49465;DHT22;35358;49.342;8.802;2023-04-05T10:28:33;7.50;99.90
49465;DHT22;35358;49.342;8.802;2023-04-05T10:31:26;7.60;99.90
49465;DHT22;35358;49.342;8.802;2023-04-05T10:34:03;7.50;99.90
49465;DHT22;35358;49.342;8.802;2023-04-05T10:36:47;8.00;99.90
49465;DHT22;35358;49.342;8.802;2023-04-05T10:39:33;8.40;99.90
49465;DHT22;35358;49.342;8.802;2023-04-05T10:42:26;8.60;99.90
49465;DHT22;35358;49.342;8.802;2023-04-05T10:45:01;8.70;99.90
49465;DHT22;35358;49.342;8.802;2023-04-05T10:47:31;8.70;99.90
49465;DHT22;35358;49.342;8.802;2023-04-05T10:50:07;8.70;99.90
49465;DHT22;35358;49.342;8.802;2023-04-05T10:52:38;8.50;99.90
49465;DHT22;35358;49.342;8.802;2023-04-05T10:55:09;8.20;99.90
49465;DHT22;35358;49.342;8.802;2023-04-05T10:57:37;8.00;99.90
49465;DHT22;35358;49.342;8.802;2023-04-05T11:00:06;8.40;99.90
49465;DHT22;35358;49.342;8.802;2023-04-05T11:02:33;8.10;99.90
49465;DHT22;35358;49.342;8.802;2023-04-05T11:05:02;8.40;99.90
49465;DHT22;35358;49.342;8.802;2023-04-05T11:07:41;8.00;99.90
49465;DHT22;35358;49.342;8.802;2023-04-05T11:10:17;7.70;99.90
49465;DHT22;35358;49.342;8.802;2023-04-05T11:18:10;8.70;99.90
49465;DHT22;35358;49.342;8.802;2023-04-05T11:20:48;9.00;99.90
49465;DHT22;35358;49.342;8.802;2023-04-05T11:23:20;9.00;99.90
49465;DHT22;35358;49.342;8.802;2023-04-05T11:25:54;9.20;99.90
49465;DHT22;35358;49.342;8.802;2023-04-05T11:28:23;9.40;99.90
49465;DHT22;35358;49.342;8.802;2023-04-05T11:30:50;9.20;99.90
49465;DHT22;35358;49.342;8.802;2023-04-05T11:36:02;9.20;99.90
49465;DHT22;35358;49.342;8.802;2023-04-05T11:38:30;8.80;99.90
49465;DHT22;35358;49.342;8.802;2023-04-05T11:41:16;8.90;99.90
49465;DHT22;35358;49.342;8.802;2023-04-05T11:43:45;9.30;99.90
49465;DHT22;35358;49.342;8.802;2023-04-05T11:46:15;9.60;99.90
49465;DHT22;35358;49.342;8.802;2023-04-05T11:48:41;10.00;99.90
49465;DHT22;35358;49.342;8.802;2023-04-05T11:51:09;9.70;99.90
49465;DHT22;35358;49.342;8.802;2023-04-05T11:53:37;9.80;99.90
49465;DHT22;35358;49.342;8.802;2023-04-05T11:56:10;9.90;99.90
49465;DHT22;35358;49.342;8.802;2023-04-05T11:58:41;9.80;99.90
49465;DHT22;35358;49.342;8.802;2023-04-05T12:01:07;9.70;99.90
49465;DHT22;35358;49.342;8.802;2023-04-05T12:03:36;9.50;99.90
49465;DHT22;35358;49.342;8.802;2023-04-05T12:06:04;10.00;99.90
49465;DHT22;35358;49.342;8.802;2023-04-05T12:08:45;9.80;99.90
49465;DHT22;35358;49.342;8.802;2023-04-05T12:11:22;9.70;99.90
49465;DHT22;35358;49.342;8.802;2023-04-05T12:13:56;10.10;99.90
49465;DHT22;35358;49.342;8.802;2023-04-05T12:16:23;9.80;99.90
49465;DHT22;35358;49.342;8.802;2023-04-05T12:18:58;10.10;99.90
49465;DHT22;35358;49.342;8.802;2023-04-05T12:21:27;10.10;99.90
49465;DHT22;35358;49.342;8.802;2023-04-05T12:23:53;9.60;99.90
49465;DHT22;35358;49.342;8.802;2023-04-05T12:26:20;9.50;99.90
49465;DHT22;35358;49.342;8.802;2023-04-05T12:28:57;10.30;99.90
49465;DHT22;35358;49.342;8.802;2023-04-05T12:31:55;10.50;99.90
49465;DHT22;35358;49.342;8.802;2023-04-05T12:34:24;10.60;99.90
49465;DHT22;35358;49.342;8.802;2023-04-05T12:36:52;10.80;99.90
49465;DHT22;35358;49.342;8.802;2023-04-05T12:39:22;10.70;99.90
49465;DHT22;35358;49.342;8.802;2023-04-05T12:41:58;10.80;99.90
49465;DHT22;35358;49.342;8.802;2023-04-05T12:44:30;11.00;99.90
49465;DHT22;35358;49.342;8.802;2023-04-05T12:47:01;10.50;99.90
49465;DHT22;35358;49.342;8.802;2023-04-05T12:49:27;10.60;99.90
49465;DHT22;35358;49.342;8.802;2023-04-05T12:51:53;11.10;99.90
49465;DHT22;35358;49.342;8.802;2023-04-05T12:54:22;11.50;99.90
49465;DHT22;35358;49.342;8.802;2023-04-05T12:56:53;11.70;99.90
49465;DHT22;35358;49.342;8.802;2023-04-05T12:59:20;11.30;99.90
49465;DHT22;35358;49.342;8.802;2023-04-05T13:01:49;11.20;99.90
49465;DHT22;35358;49.342;8.802;2023-04-05T13:04:15;11.10;99.90
49465;DHT22;35358;49.342;8.802;2023-04-05T13:06:45;11.30;99.90
49465;DHT22;35358;49.342;8.802;2023-04-05T13:09:11;11.70;99.90
49465;DHT22;35358;49.342;8.802;2023-04-05T13:11:41;11.80;99.90
49465;DHT22;35358;49.342;8.802;2023-04-05T13:14:09;10.70;99.90
49465;DHT22;35358;49.342;8.802;2023-04-05T13:16:35;10.90;99.90
49465;DHT22;35358;49.342;8.802;2023-04-05T13:19:03;11.60;99.90
49465;DHT22;35358;49.342;8.802;2023-04-05T13:21:29;11.80;99.90
49465;DHT22;35358;49.342;8.802;2023-04-05T13:23:57;12.00;99.90
49465;DHT22;35358;49.342;8.802;2023-04-05T13:26:22;12.30;99.90
49465;DHT22;35358;49.342;8.802;2023-04-05T13:28:48;11.90;99.90
49465;DHT22;35358;49.342;8.802;2023-04-05T13:31:13;11.90;99.90
49465;DHT22;35358;49.342;8.802;2023-04-05T13:33:39;11.80;99.90
49465;DHT22;35358;49.342;8.802;2023-04-05T13:36:05;11.70;99.90
49465;DHT22;35358;49.342;8.802;2023-04-05T13:38:30;12.00;99.90
49465;DHT22;35358;49.342;8.802;2023-04-05T13:40:56;12.30;99.90
49465;DHT22;35358;49.342;8.802;2023-04-05T13:43:24;12.20;99.90
49465;DHT22;35358;49.342;8.802;2023-04-05T13:45:52;12.00;99.90
49465;DHT22;35358;49.342;8.802;2023-04-05T13:48:17;12.40;99.90
49465;DHT22;35358;49.342;8.802;2023-04-05T13:50:45;12.90;99.90
49465;DHT22;35358;49.342;8.802;2023-04-05T13:53:11;12.90;99.90
49465;DHT22;35358;49.342;8.802;2023-04-05T13:55:36;13.10;99.90
49465;DHT22;35358;49.342;8.802;2023-04-05T13:58:04;13.20;99.90
49465;DHT22;35358;49.342;8.802;2023-04-05T14:00:30;13.50;99.90
49465;DHT22;35358;49.342;8.802;2023-04-05T14:02:58;13.50;99.90
49465;DHT22;35358;49.342;8.802;2023-04-05T14:05:24;13.70;99.90
49465;DHT22;35358;49.342;8.802;2023-04-05T14:07:52;13.50;99.90
49465;DHT22;35358;49.342;8.802;2023-04-05T14:10:17;13.60;99.90
49465;DHT22;35358;49.342;8.802;2023-04-05T14:12:45;13.90;99.90
49465;DHT22;35358;49.342;8.802;2023-04-05T14:15:13;13.60;99.90
49465;DHT22;35358;49.342;8.802;2023-04-05T14:17:39;13.70;99.90
49465;DHT22;35358;49.342;8.802;2023-04-05T14:20:08;13.80;99.90
49465;DHT22;35358;49.342;8.802;2023-04-05T14:22:33;13.00;99.90
49465;DHT22;35358;49.342;8.802;2023-04-05T14:24:59;12.80;99.90
49465;DHT22;35358;49.342;8.802;2023-04-05T14:27:25;13.40;99.90
49465;DHT22;35358;49.342;8.802;2023-04-05T14:29:53;13.40;99.90
49465;DHT22;35358;49.342;8.802;2023-04-05T14:32:24;13.30;99.90
49465;DHT22;35358;49.342;8.802;2023-04-05T14:34:50;13.60;99.90
49465;DHT22;35358;49.342;8.802;2023-04-05T14:37:17;13.40;99.90
49465;DHT22;35358;49.342;8.802;2023-04-05T14:39:43;13.40;99.90
49465;DHT22;35358;49.342;8.802;2023-04-05T14:42:11;13.10;99.90
49465;DHT22;35358;49.342;8.802;2023-04-05T14:44:39;13.30;99.90
49465;DHT22;35358;49.342;8.802;2023-04-05T14:47:05;13.50;99.90
49465;DHT22;35358;49.342;8.802;2023-04-05T14:49:30;13.70;99.90
49465;DHT22;35358;49.342;8.802;2023-04-05T14:51:56;13.10;99.90
49465;DHT22;35358;49.342;8.802;2023-04-05T14:54:22;13.50;99.90
49465;DHT22;35358;49.342;8.802;2023-04-05T14:56:47;13.50;99.90
49465;DHT22;35358;49.342;8.802;2023-04-05T14:59:13;13.60;99.90
49465;DHT22;35358;49.342;8.802;2023-04-05T15:01:41;13.20;99.90
49465;DHT22;35358;49.342;8.802;2023-04-05T15:04:11;13.00;99.90
49465;DHT22;35358;49.342;8.802;2023-04-05T15:06:37;13.30;99.90
49465;DHT22;35358;49.342;8.802;2023-04-05T15:09:02;12.80;99.90
49465;DHT22;35358;49.342;8.802;2023-04-05T15:11:28;13.50;99.90
49465;DHT22;35358;49.342;8.802;2023-04-05T15:13:54;14.00;99.90
49465;DHT22;35358;49.342;8.802;2023-04-05T15:16:19;14.10;99.90
49465;DHT22;35358;49.342;8.802;2023-04-05T15:18:45;13.40;99.90
49465;DHT22;35358;49.342;8.802;2023-04-05T15:21:11;13.60;99.90
49465;DHT22;35358;49.342;8.802;2023-04-05T15:23:37;13.40;99.90
49465;DHT22;35358;49.342;8.802;2023-04-05T15:26:03;13.20;99.90
49465;DHT22;35358;49.342;8.802;2023-04-05T15:28:28;13.30;99.90
49465;DHT22;35358;49.342;8.802;2023-04-05T15:30:54;13.40;99.90
49465;DHT22;35358;49.342;8.802;2023-04-05T15:33:22;12.80;99.90
49465;DHT22;35358;49.342;8.802;2023-04-05T15:35:48;12.70;99.90
49465;DHT22;35358;49.342;8.802;2023-04-05T15:38:13;13.10;99.90
49465;DHT22;35358;49.342;8.802;2023-04-05T15:40:39;13.50;99.90
49465;DHT22;35358;49.342;8.802;2023-04-05T15:43:09;13.50;99.90
49465;DHT22;35358;49.342;8.802;2023-04-05T15:45:36;13.90;99.90
49465;DHT22;35358;49.342;8.802;2023-04-05T15:48:01;13.60;99.90
49465;DHT22;35358;49.342;8.802;2023-04-05T15:50:27;13.20;99.90
49465;DHT22;35358;49.342;8.802;2023-04-05T15:52:53;13.60;99.90
49465;DHT22;35358;49.342;8.802;2023-04-05T15:55:23;14.20;99.90
49465;DHT22;35358;49.342;8.802;2023-04-05T15:57:51;14.10;99.90
49465;DHT22;35358;49.342;8.802;2023-04-05T16:00:20;14.30;99.90
49465;DHT22;35358;49.342;8.802;2023-04-05T16:02:47;14.10;99.90
49465;DHT22;35358;49.342;8.802;2023-04-05T16:05:12;13.80;99.90
49465;DHT22;35358;49.342;8.802;2023-04-05T16:07:38;12.90;99.90
49465;DHT22;35358;49.342;8.802;2023-04-05T16:10:07;13.10;99.90
49465;DHT22;35358;49.342;8.802;2023-04-05T16:12:35;13.50;99.90
49465;DHT22;35358;49.342;8.802;2023-04-05T16:15:04;13.80;99.90
49465;DHT22;35358;49.342;8.802;2023-04-05T16:17:34;13.80;99.90
49465;DHT22;35358;49.342;8.802;2023-04-05T16:20:00;13.60;99.90
49465;DHT22;35358;49.342;8.802;2023-04-05T16:22:26;13.50;99.90
49465;DHT22;35358;49.342;8.802;2023-04-05T16:24:51;13.10;99.90
49465;DHT22;35358;49.342;8.802;2023-04-05T16:27:17;13.10;99.90
49465;DHT22;35358;49.342;8.802;2023-04-05T16:29:42;13.80;99.90
49465;DHT22;35358;49.342;8.802;2023-04-05T16:32:08;13.80;99.90
49465;DHT22;35358;49.342;8.802;2023-04-05T16:34:34;14.00;99.90
49465;DHT22;35358;49.342;8.802;2023-04-05T16:37:02;14.00;99.90
49465;DHT22;35358;49.342;8.802;2023-04-05T16:39:28;13.70;99.90
49465;DHT22;35358;49.342;8.802;2023-04-05T16:41:56;13.40;99.90
49465;DHT22;35358;49.342;8.802;2023-04-05T16:44:22;13.40;99.90
49465;DHT22;35358;49.342;8.802;2023-04-05T16:46:50;13.70;99.90
49465;DHT22;35358;49.342;8.802;2023-04-05T16:49:16;13.80;99.90
49465;DHT22;35358;49.342;8.802;2023-04-05T16:51:42;13.90;99.90
49465;DHT22;35358;49.342;8.802;2023-04-05T16:54:10;13.60;99.90
49465;DHT22;35358;49.342;8.802;2023-04-05T16:56:39;13.20;99.90
49465;DHT22;35358;49.342;8.802;2023-04-05T16:59:08;12.60;99.90